sensor_id;sensor_type;location;lat;lon;timestamp;P1;durP1;ratioP1;P2;durP2;ratioP2
1475;SDS011;730;48.870;12.542;2023-07-13T00:00:05;8.03;;;6.70;;
1475;SDS011;730;48.870;12.542;2023-07-13T00:02:37;7.43;;;6.83;;
1475;SDS011;730;48.870;12.542;2023-07-13T00:05:03;10.07;;;6.70;;
1475;SDS011;730;48.870;12.542;2023-07-13T00:07:29;7.20;;;6.60;;
1475;SDS011;730;48.870;12.542;2023-07-13T00:09:58;7.63;;;6.83;;
1475;SDS011;730;48.870;12.542;2023-07-13T00:12:32;8.27;;;6.47;;
1475;SDS011;730;48.870;12.542;2023-07-13T00:14:59;8.23;;;7.43;;
1475;SDS011;730;48.870;12.542;2023-07-13T00:17:27;7.33;;;6.70;;
1475;SDS011;730;48.870;12.542;2023-07-13T00:19:54;6.53;;;5.97;;
1475;SDS011;730;48.870;12.542;2023-07-13T00:22:22;6.80;;;6.10;;
1475;SDS011;730;48.870;12.542;2023-07-13T00:24:53;7.63;;;6.60;;
1475;SDS011;730;48.870;12.542;2023-07-13T00:27:23;8.97;;;6.67;;
1475;SDS011;730;48.870;12.542;2023-07-13T00:29:52;7.30;;;6.60;;
1475;SDS011;730;48.870;12.542;2023-07-13T00:32:18;6.30;;;5.70;;
1475;SDS011;730;48.870;12.542;2023-07-13T00:34:47;8.00;;;6.70;;
1475;SDS011;730;48.870;12.542;2023-07-13T00:37:13;9.53;;;6.20;;
1475;SDS011;730;48.870;12.542;2023-07-13T00:39:40;5.80;;;5.40;;
1475;SDS011;730;48.870;12.542;2023-07-13T00:42:06;6.57;;;6.03;;
1475;SDS011;730;48.870;12.542;2023-07-13T00:44:32;6.33;;;5.77;;
1475;SDS011;730;48.870;12.542;2023-07-13T00:46:58;6.67;;;6.07;;
1475;SDS011;730;48.870;12.542;2023-07-13T00:49:25;8.03;;;6.03;;
1475;SDS011;730;48.870;12.542;2023-07-13T00:54:23;7.10;;;6.37;;
1475;SDS011;730;48.870;12.542;2023-07-13T00:56:53;8.57;;;7.50;;
1475;SDS011;730;48.870;12.542;2023-07-13T00:59:23;7.40;;;6.47;;
1475;SDS011;730;48.870;12.542;2023-07-13T01:01:50;6.73;;;6.10;;
1475;SDS011;730;48.870;12.542;2023-07-13T01:04:23;6.27;;;5.70;;
1475;SDS011;730;48.870;12.542;2023-07-13T01:06:50;6.17;;;5.60;;
1475;SDS011;730;48.870;12.542;2023-07-13T01:09:17;5.87;;;5.27;;
1475;SDS011;730;48.870;12.542;2023-07-13T01:11:43;6.80;;;6.20;;
1475;SDS011;730;48.870;12.542;2023-07-13T01:14:10;6.73;;;6.00;;
1475;SDS011;730;48.870;12.542;2023-07-13T01:16:37;5.73;;;5.20;;
1475;SDS011;730;48.870;12.542;2023-07-13T01:19:14;6.13;;;5.50;;
1475;SDS011;730;48.870;12.542;2023-07-13T01:22:03;6.30;;;5.70;;
1475;SDS011;730;48.870;12.542;2023-07-13T01:24:37;6.60;;;5.80;;
1475;SDS011;730;48.870;12.542;2023-07-13T01:27:05;6.00;;;5.40;;
1475;SDS011;730;48.870;12.542;2023-07-13T01:29:34;5.80;;;5.30;;
1475;SDS011;730;48.870;12.542;2023-07-13T01:32:11;7.30;;;5.97;;
1475;SDS011;730;48.870;12.542;2023-07-13T01:34:39;6.60;;;5.70;;
1475;SDS011;730;48.870;12.542;2023-07-13T01:37:10;6.40;;;5.80;;
1475;SDS011;730;48.870;12.542;2023-07-13T01:39:36;6.87;;;5.50;;
1475;SDS011;730;48.870;12.542;2023-07-13T01:42:03;9.90;;;6.13;;
1475;SDS011;730;48.870;12.542;2023-07-13T01:44:30;6.47;;;5.43;;
1475;SDS011;730;48.870;12.542;2023-07-13T01:46:56;5.83;;;5.17;;
1475;SDS011;730;48.870;12.542;2023-07-13T01:49:22;6.33;;;5.73;;
1475;SDS011;730;48.870;12.542;2023-07-13T01:51:48;8.07;;;5.33;;
1475;SDS011;730;48.870;12.542;2023-07-13T01:54:18;6.13;;;5.60;;
1475;SDS011;730;48.870;12.542;2023-07-13T01:56:44;6.07;;;5.47;;
1475;SDS011;730;48.870;12.542;2023-07-13T01:59:10;7.53;;;5.37;;
1475;SDS011;730;48.870;12.542;2023-07-13T02:01:36;5.20;;;4.70;;
1475;SDS011;730;48.870;12.542;2023-07-13T02:04:03;5.30;;;4.60;;
1475;SDS011;730;48.870;12.542;2023-07-13T02:06:29;5.43;;;4.60;;
1475;SDS011;730;48.870;12.542;2023-07-13T02:08:55;9.90;;;5.50;;
1475;SDS011;730;48.870;12.542;2023-07-13T02:11:21;9.10;;;6.03;;
1475;SDS011;730;48.870;12.542;2023-07-13T02:13:56;5.33;;;4.20;;
1475;SDS011;730;48.870;12.542;2023-07-13T02:16:22;6.53;;;4.40;;
1475;SDS011;730;48.870;12.542;2023-07-13T02:18:48;6.70;;;4.73;;
1475;SDS011;730;48.870;12.542;2023-07-13T02:21:17;5.63;;;4.43;;
1475;SDS011;730;48.870;12.542;2023-07-13T02:23:43;6.17;;;4.80;;
1475;SDS011;730;48.870;12.542;2023-07-13T02:26:10;5.87;;;4.87;;
1475;SDS011;730;48.870;12.542;2023-07-13T02:28:36;5.00;;;4.50;;
1475;SDS011;730;48.870;12.542;2023-07-13T02:31:10;5.30;;;4.43;;
1475;SDS011;730;48.870;12.542;2023-07-13T02:33:38;5.13;;;4.63;;
1475;SDS011;730;48.870;12.542;2023-07-13T02:36:04;8.40;;;4.70;;
1475;SDS011;730;48.870;12.542;2023-07-13T02:38:32;5.40;;;4.57;;
1475;SDS011;730;48.870;12.542;2023-07-13T02:40:59;7.17;;;4.27;;
1475;SDS011;730;48.870;12.542;2023-07-13T02:43:25;5.93;;;4.30;;
1475;SDS011;730;48.870;12.542;2023-07-13T02:45:51;7.40;;;4.70;;
1475;SDS011;730;48.870;12.542;2023-07-13T02:48:18;12.63;;;4.87;;
1475;SDS011;730;48.870;12.542;2023-07-13T02:50:44;7.00;;;4.33;;
1475;SDS011;730;48.870;12.542;2023-07-13T02:53:10;7.30;;;4.13;;
1475;SDS011;730;48.870;12.542;2023-07-13T02:55:36;8.47;;;4.77;;
1475;SDS011;730;48.870;12.542;2023-07-13T02:58:02;6.80;;;4.13;;
1475;SDS011;730;48.870;12.542;2023-07-13T03:00:28;8.33;;;4.50;;
1475;SDS011;730;48.870;12.542;2023-07-13T03:02:54;7.23;;;4.30;;
1475;SDS011;730;48.870;12.542;2023-07-13T03:05:23;6.77;;;4.83;;
1475;SDS011;730;48.870;12.542;2023-07-13T03:07:50;7.77;;;4.63;;
1475;SDS011;730;48.870;12.542;2023-07-13T03:10:16;10.30;;;4.20;;
1475;SDS011;730;48.870;12.542;2023-07-13T03:12:42;5.33;;;3.80;;
1475;SDS011;730;48.870;12.542;2023-07-13T03:15:08;9.90;;;4.60;;
1475;SDS011;730;48.870;12.542;2023-07-13T03:17:34;7.60;;;4.40;;
1475;SDS011;730;48.870;12.542;2023-07-13T03:20:00;6.13;;;3.83;;
1475;SDS011;730;48.870;12.542;2023-07-13T03:22:26;7.70;;;4.90;;
1475;SDS011;730;48.870;12.542;2023-07-13T03:24:54;4.43;;;3.50;;
1475;SDS011;730;48.870;12.542;2023-07-13T03:27:20;8.93;;;4.50;;
1475;SDS011;730;48.870;12.542;2023-07-13T03:29:46;6.60;;;4.50;;
1475;SDS011;730;48.870;12.542;2023-07-13T03:32:13;7.70;;;4.33;;
1475;SDS011;730;48.870;12.542;2023-07-13T03:34:39;6.40;;;4.60;;
1475;SDS011;730;48.870;12.542;2023-07-13T03:37:05;7.80;;;3.87;;
1475;SDS011;730;48.870;12.542;2023-07-13T03:39:31;8.73;;;4.53;;
1475;SDS011;730;48.870;12.542;2023-07-13T03:41:57;7.10;;;4.43;;
1475;SDS011;730;48.870;12.542;2023-07-13T03:44:23;9.63;;;4.93;;
1475;SDS011;730;48.870;12.542;2023-07-13T03:46:49;8.10;;;4.60;;
1475;SDS011;730;48.870;12.542;2023-07-13T03:49:16;7.90;;;4.70;;
1475;SDS011;730;48.870;12.542;2023-07-13T03:51:42;13.70;;;4.90;;
1475;SDS011;730;48.870;12.542;2023-07-13T03:54:08;9.83;;;4.17;;
1475;SDS011;730;48.870;12.542;2023-07-13T03:56:34;15.00;;;4.60;;
1475;SDS011;730;48.870;12.542;2023-07-13T03:59:00;11.73;;;5.03;;
1475;SDS011;730;48.870;12.542;2023-07-13T04:01:27;8.97;;;4.63;;
1475;SDS011;730;48.870;12.542;2023-07-13T04:03:53;10.07;;;4.00;;
1475;SDS011;730;48.870;12.542;2023-07-13T04:06:23;9.50;;;3.73;;
1475;SDS011;730;48.870;12.542;2023-07-13T04:08:53;10.10;;;4.83;;
1475;SDS011;730;48.870;12.542;2023-07-13T04:11:22;14.90;;;4.80;;
1475;SDS011;730;48.870;12.542;2023-07-13T04:13:50;9.10;;;4.47;;
1475;SDS011;730;48.870;12.542;2023-07-13T04:16:17;12.87;;;5.90;;
1475;SDS011;730;48.870;12.542;2023-07-13T04:18:44;11.53;;;5.33;;
1475;SDS011;730;48.870;12.542;2023-07-13T04:21:11;11.40;;;4.80;;
1475;SDS011;730;48.870;12.542;2023-07-13T04:23:39;7.93;;;4.10;;
1475;SDS011;730;48.870;12.542;2023-07-13T04:26:05;9.73;;;4.23;;
1475;SDS011;730;48.870;12.542;2023-07-13T04:28:33;9.83;;;4.47;;
1475;SDS011;730;48.870;12.542;2023-07-13T04:30:59;8.43;;;4.20;;
1475;SDS011;730;48.870;12.542;2023-07-13T04:33:26;9.77;;;4.83;;
1475;SDS011;730;48.870;12.542;2023-07-13T04:35:53;6.03;;;4.30;;
1475;SDS011;730;48.870;12.542;2023-07-13T04:38:22;5.43;;;4.93;;
1475;SDS011;730;48.870;12.542;2023-07-13T04:40:50;9.93;;;5.33;;
1475;SDS011;730;48.870;12.542;2023-07-13T04:43:17;6.20;;;5.00;;
1475;SDS011;730;48.870;12.542;2023-07-13T04:45:43;9.37;;;5.03;;
1475;SDS011;730;48.870;12.542;2023-07-13T04:48:09;8.20;;;4.83;;
1475;SDS011;730;48.870;12.542;2023-07-13T04:50:36;5.50;;;4.80;;
1475;SDS011;730;48.870;12.542;2023-07-13T04:53:02;6.10;;;5.50;;
1475;SDS011;730;48.870;12.542;2023-07-13T04:55:29;7.03;;;6.10;;
1475;SDS011;730;48.870;12.542;2023-07-13T04:58:03;9.33;;;6.27;;
1475;SDS011;730;48.870;12.542;2023-07-13T05:00:30;7.67;;;5.00;;
1475;SDS011;730;48.870;12.542;2023-07-13T05:02:57;11.07;;;5.13;;
1475;SDS011;730;48.870;12.542;2023-07-13T05:05:24;10.63;;;6.00;;
1475;SDS011;730;48.870;12.542;2023-07-13T05:07:52;7.43;;;6.73;;
1475;SDS011;730;48.870;12.542;2023-07-13T05:10:18;9.23;;;5.93;;
1475;SDS011;730;48.870;12.542;2023-07-13T05:12:44;7.80;;;4.83;;
1475;SDS011;730;48.870;12.542;2023-07-13T05:15:11;11.27;;;6.43;;
1475;SDS011;730;48.870;12.542;2023-07-13T05:17:37;6.67;;;6.03;;
1475;SDS011;730;48.870;12.542;2023-07-13T05:20:06;8.37;;;5.17;;
1475;SDS011;730;48.870;12.542;2023-07-13T05:22:34;11.47;;;5.53;;
1475;SDS011;730;48.870;12.542;2023-07-13T05:25:01;7.53;;;5.43;;
1475;SDS011;730;48.870;12.542;2023-07-13T05:27:30;6.80;;;5.73;;
1475;SDS011;730;48.870;12.542;2023-07-13T05:29:56;8.70;;;5.23;;
1475;SDS011;730;48.870;12.542;2023-07-13T05:32:22;8.03;;;5.70;;
1475;SDS011;730;48.870;12.542;2023-07-13T05:34:48;7.47;;;5.70;;
1475;SDS011;730;48.870;12.542;2023-07-13T05:37:14;8.07;;;5.00;;
1475;SDS011;730;48.870;12.542;2023-07-13T05:39:40;6.67;;;5.43;;
1475;SDS011;730;48.870;12.542;2023-07-13T05:42:06;8.23;;;6.20;;
1475;SDS011;730;48.870;12.542;2023-07-13T05:44:37;7.43;;;5.50;;
1475;SDS011;730;48.870;12.542;2023-07-13T05:47:03;5.83;;;5.20;;
1475;SDS011;730;48.870;12.542;2023-07-13T05:49:29;6.70;;;6.10;;
1475;SDS011;730;48.870;12.542;2023-07-13T05:51:56;8.27;;;5.63;;
1475;SDS011;730;48.870;12.542;2023-07-13T05:54:22;11.00;;;6.90;;
1475;SDS011;730;48.870;12.542;2023-07-13T05:56:48;6.30;;;5.70;;
1475;SDS011;730;48.870;12.542;2023-07-13T05:59:19;7.30;;;5.77;;
1475;SDS011;730;48.870;12.542;2023-07-13T06:01:45;7.37;;;5.70;;
1475;SDS011;730;48.870;12.542;2023-07-13T06:04:11;7.60;;;6.47;;
1475;SDS011;730;48.870;12.542;2023-07-13T06:06:37;6.73;;;5.87;;
1475;SDS011;730;48.870;12.542;2023-07-13T06:09:03;7.30;;;6.27;;
1475;SDS011;730;48.870;12.542;2023-07-13T06:11:29;5.87;;;5.37;;
1475;SDS011;730;48.870;12.542;2023-07-13T06:13:57;7.33;;;6.67;;
1475;SDS011;730;48.870;12.542;2023-07-13T06:16:23;12.83;;;6.13;;
1475;SDS011;730;48.870;12.542;2023-07-13T06:18:49;10.40;;;6.67;;
1475;SDS011;730;48.870;12.542;2023-07-13T06:21:16;7.30;;;6.20;;
1475;SDS011;730;48.870;12.542;2023-07-13T06:23:46;6.17;;;5.53;;
1475;SDS011;730;48.870;12.542;2023-07-13T06:26:18;6.60;;;5.80;;
1475;SDS011;730;48.870;12.542;2023-07-13T06:28:45;7.33;;;5.73;;
1475;SDS011;730;48.870;12.542;2023-07-13T06:31:12;7.07;;;5.70;;
1475;SDS011;730;48.870;12.542;2023-07-13T06:33:39;5.63;;;5.23;;
1475;SDS011;730;48.870;12.542;2023-07-13T06:36:06;5.70;;;5.10;;
1475;SDS011;730;48.870;12.542;2023-07-13T06:38:33;7.30;;;5.60;;
1475;SDS011;730;48.870;12.542;2023-07-13T06:40:59;4.90;;;4.40;;
1475;SDS011;730;48.870;12.542;2023-07-13T06:43:29;5.77;;;4.23;;
1475;SDS011;730;48.870;12.542;2023-07-13T06:45:57;6.40;;;5.80;;
1475;SDS011;730;48.870;12.542;2023-07-13T06:48:23;5.23;;;4.73;;
1475;SDS011;730;48.870;12.542;2023-07-13T06:50:49;4.53;;;4.13;;
1475;SDS011;730;48.870;12.542;2023-07-13T06:53:17;5.00;;;4.47;;
1475;SDS011;730;48.870;12.542;2023-07-13T06:55:44;5.27;;;4.60;;
1475;SDS011;730;48.870;12.542;2023-07-13T06:58:11;6.43;;;4.93;;
1475;SDS011;730;48.870;12.542;2023-07-13T07:00:38;7.43;;;4.27;;
1475;SDS011;730;48.870;12.542;2023-07-13T07:03:05;5.63;;;4.27;;
1475;SDS011;730;48.870;12.542;2023-07-13T07:05:31;7.53;;;4.03;;
1475;SDS011;730;48.870;12.542;2023-07-13T07:07:58;5.53;;;4.53;;
1475;SDS011;730;48.870;12.542;2023-07-13T07:10:25;8.13;;;4.10;;
1475;SDS011;730;48.870;12.542;2023-07-13T07:12:51;4.00;;;3.57;;
1475;SDS011;730;48.870;12.542;2023-07-13T07:15:18;6.30;;;4.07;;
1475;SDS011;730;48.870;12.542;2023-07-13T07:17:44;5.00;;;3.93;;
1475;SDS011;730;48.870;12.542;2023-07-13T07:20:10;3.90;;;3.00;;
1475;SDS011;730;48.870;12.542;2023-07-13T07:22:36;5.27;;;3.67;;
1475;SDS011;730;48.870;12.542;2023-07-13T07:25:02;3.87;;;3.00;;
1475;SDS011;730;48.870;12.542;2023-07-13T07:27:28;6.50;;;4.27;;
1475;SDS011;730;48.870;12.542;2023-07-13T07:29:54;4.17;;;3.70;;
1475;SDS011;730;48.870;12.542;2023-07-13T07:32:23;3.23;;;2.83;;
1475;SDS011;730;48.870;12.542;2023-07-13T07:34:49;8.57;;;2.97;;
1475;SDS011;730;48.870;12.542;2023-07-13T07:37:15;4.87;;;2.70;;
1475;SDS011;730;48.870;12.542;2023-07-13T07:39:42;3.33;;;2.50;;
1475;SDS011;730;48.870;12.542;2023-07-13T07:42:08;5.37;;;2.67;;
1475;SDS011;730;48.870;12.542;2023-07-13T07:44:35;5.33;;;2.80;;
1475;SDS011;730;48.870;12.542;2023-07-13T07:47:01;2.83;;;2.53;;
1475;SDS011;730;48.870;12.542;2023-07-13T07:49:28;2.70;;;2.47;;
1475;SDS011;730;48.870;12.542;2023-07-13T07:51:54;3.87;;;2.10;;
1475;SDS011;730;48.870;12.542;2023-07-13T07:54:20;3.00;;;2.30;;
1475;SDS011;730;48.870;12.542;2023-07-13T07:56:47;3.70;;;2.23;;
1475;SDS011;730;48.870;12.542;2023-07-13T07:59:13;4.20;;;3.00;;
1475;SDS011;730;48.870;12.542;2023-07-13T08:01:39;4.83;;;2.73;;
1475;SDS011;730;48.870;12.542;2023-07-13T08:04:05;4.00;;;1.90;;
1475;SDS011;730;48.870;12.542;2023-07-13T08:06:32;3.03;;;2.13;;
1475;SDS011;730;48.870;12.542;2023-07-13T08:08:59;4.00;;;2.40;;
1475;SDS011;730;48.870;12.542;2023-07-13T08:11:25;7.43;;;2.50;;
1475;SDS011;730;48.870;12.542;2023-07-13T08:13:51;5.70;;;1.97;;
1475;SDS011;730;48.870;12.542;2023-07-13T08:16:17;4.60;;;2.57;;
1475;SDS011;730;48.870;12.542;2023-07-13T08:18:43;2.83;;;2.00;;
1475;SDS011;730;48.870;12.542;2023-07-13T08:21:09;2.37;;;1.90;;
1475;SDS011;730;48.870;12.542;2023-07-13T08:23:35;2.57;;;1.60;;
1475;SDS011;730;48.870;12.542;2023-07-13T08:26:02;2.33;;;1.90;;
1475;SDS011;730;48.870;12.542;2023-07-13T08:28:31;2.63;;;2.10;;
1475;SDS011;730;48.870;12.542;2023-07-13T08:31:02;2.30;;;1.60;;
1475;SDS011;730;48.870;12.542;2023-07-13T08:33:29;2.43;;;1.73;;
1475;SDS011;730;48.870;12.542;2023-07-13T08:35:55;2.17;;;1.53;;
1475;SDS011;730;48.870;12.542;2023-07-13T08:38:21;3.80;;;2.03;;
1475;SDS011;730;48.870;12.542;2023-07-13T08:40:52;4.60;;;1.70;;
1475;SDS011;730;48.870;12.542;2023-07-13T08:43:22;3.30;;;1.57;;
1475;SDS011;730;48.870;12.542;2023-07-13T08:45:53;2.67;;;1.70;;
1475;SDS011;730;48.870;12.542;2023-07-13T08:48:28;4.53;;;1.80;;
1475;SDS011;730;48.870;12.542;2023-07-13T08:54:00;2.90;;;1.33;;
1475;SDS011;730;48.870;12.542;2023-07-13T08:56:29;1.90;;;1.53;;
1475;SDS011;730;48.870;12.542;2023-07-13T08:59:05;3.73;;;1.53;;
1475;SDS011;730;48.870;12.542;2023-07-13T09:01:51;2.43;;;1.63;;
1475;SDS011;730;48.870;12.542;2023-07-13T09:04:43;2.73;;;1.43;;
1475;SDS011;730;48.870;12.542;2023-07-13T09:07:18;2.50;;;1.50;;
1475;SDS011;730;48.870;12.542;2023-07-13T09:10:17;2.07;;;1.43;;
1475;SDS011;730;48.870;12.542;2023-07-13T09:15:28;3.37;;;1.30;;
1475;SDS011;730;48.870;12.542;2023-07-13T09:18:02;1.50;;;1.10;;
1475;SDS011;730;48.870;12.542;2023-07-13T09:20:35;3.10;;;1.40;;
1475;SDS011;730;48.870;12.542;2023-07-13T09:23:09;2.67;;;1.73;;
1475;SDS011;730;48.870;12.542;2023-07-13T09:25:39;2.23;;;1.27;;
1475;SDS011;730;48.870;12.542;2023-07-13T09:28:15;3.33;;;1.50;;
1475;SDS011;730;48.870;12.542;2023-07-13T09:31:01;2.70;;;1.40;;
1475;SDS011;730;48.870;12.542;2023-07-13T09:33:29;2.60;;;1.43;;
1475;SDS011;730;48.870;12.542;2023-07-13T09:35:57;3.50;;;2.33;;
1475;SDS011;730;48.870;12.542;2023-07-13T09:38:24;2.77;;;1.70;;
1475;SDS011;730;48.870;12.542;2023-07-13T09:44:01;3.07;;;1.63;;
1475;SDS011;730;48.870;12.542;2023-07-13T09:46:37;2.00;;;1.30;;
1475;SDS011;730;48.870;12.542;2023-07-13T09:49:14;2.43;;;1.20;;
1475;SDS011;730;48.870;12.542;2023-07-13T09:51:41;1.47;;;1.37;;
1475;SDS011;730;48.870;12.542;2023-07-13T09:54:17;1.97;;;1.30;;
1475;SDS011;730;48.870;12.542;2023-07-13T09:56:45;3.10;;;1.47;;
1475;SDS011;730;48.870;12.542;2023-07-13T09:59:21;2.27;;;1.53;;
1475;SDS011;730;48.870;12.542;2023-07-13T10:01:49;3.17;;;1.60;;
1475;SDS011;730;48.870;12.542;2023-07-13T10:04:19;5.80;;;1.50;;
1475;SDS011;730;48.870;12.542;2023-07-13T10:06:47;1.70;;;1.23;;
1475;SDS011;730;48.870;12.542;2023-07-13T10:09:15;5.23;;;1.57;;
1475;SDS011;730;48.870;12.542;2023-07-13T10:11:42;2.93;;;1.50;;
1475;SDS011;730;48.870;12.542;2023-07-13T10:14:20;1.93;;;1.53;;
1475;SDS011;730;48.870;12.542;2023-07-13T10:16:59;1.97;;;1.77;;
1475;SDS011;730;48.870;12.542;2023-07-13T10:19:36;2.07;;;1.30;;
1475;SDS011;730;48.870;12.542;2023-07-13T10:22:14;3.70;;;1.80;;
1475;SDS011;730;48.870;12.542;2023-07-13T10:24:52;2.70;;;1.40;;
1475;SDS011;730;48.870;12.542;2023-07-13T10:27:23;3.50;;;1.67;;
1475;SDS011;730;48.870;12.542;2023-07-13T10:32:48;3.43;;;1.40;;
1475;SDS011;730;48.870;12.542;2023-07-13T10:35:16;2.73;;;1.40;;
1475;SDS011;730;48.870;12.542;2023-07-13T10:37:54;3.30;;;2.53;;
1475;SDS011;730;48.870;12.542;2023-07-13T10:40:29;4.00;;;1.77;;
1475;SDS011;730;48.870;12.542;2023-07-13T10:43:09;2.47;;;1.60;;
1475;SDS011;730;48.870;12.542;2023-07-13T10:45:45;2.80;;;1.60;;
1475;SDS011;730;48.870;12.542;2023-07-13T10:48:15;4.07;;;1.50;;
1475;SDS011;730;48.870;12.542;2023-07-13T10:50:43;3.90;;;1.50;;
1475;SDS011;730;48.870;12.542;2023-07-13T10:58:22;2.90;;;1.83;;
1475;SDS011;730;48.870;12.542;2023-07-13T11:01:17;2.80;;;1.63;;
1475;SDS011;730;48.870;12.542;2023-07-13T11:04:05;3.87;;;1.70;;
1475;SDS011;730;48.870;12.542;2023-07-13T11:09:03;4.40;;;1.60;;
1475;SDS011;730;48.870;12.542;2023-07-13T11:12:03;2.00;;;1.50;;
1475;SDS011;730;48.870;12.542;2023-07-13T11:14:41;2.00;;;1.47;;
1475;SDS011;730;48.870;12.542;2023-07-13T11:22:43;3.40;;;1.83;;
1475;SDS011;730;48.870;12.542;2023-07-13T11:28:07;1.60;;;1.30;;
1475;SDS011;730;48.870;12.542;2023-07-13T11:33:19;2.80;;;1.57;;
1475;SDS011;730;48.870;12.542;2023-07-13T11:35:49;1.83;;;1.27;;
1475;SDS011;730;48.870;12.542;2023-07-13T11:38:24;2.47;;;1.20;;
1475;SDS011;730;48.870;12.542;2023-07-13T11:40:58;4.13;;;1.30;;
1475;SDS011;730;48.870;12.542;2023-07-13T11:43:28;1.53;;;1.43;;
1475;SDS011;730;48.870;12.542;2023-07-13T11:45:54;2.43;;;1.50;;
1475;SDS011;730;48.870;12.542;2023-07-13T11:48:21;2.27;;;1.13;;
1475;SDS011;730;48.870;12.542;2023-07-13T11:50:57;5.53;;;1.70;;
1475;SDS011;730;48.870;12.542;2023-07-13T11:53:29;2.13;;;1.37;;
1475;SDS011;730;48.870;12.542;2023-07-13T11:56:07;3.00;;;1.60;;
1475;SDS011;730;48.870;12.542;2023-07-13T11:58:33;2.70;;;1.20;;
1475;SDS011;730;48.870;12.542;2023-07-13T12:01:01;1.57;;;1.10;;
1475;SDS011;730;48.870;12.542;2023-07-13T12:03:30;3.47;;;1.33;;
1475;SDS011;730;48.870;12.542;2023-07-13T12:06:00;2.67;;;1.30;;
1475;SDS011;730;48.870;12.542;2023-07-13T12:08:28;1.83;;;1.33;;
1475;SDS011;730;48.870;12.542;2023-07-13T12:10:59;2.87;;;1.27;;
1475;SDS011;730;48.870;12.542;2023-07-13T12:13:34;2.97;;;1.17;;
1475;SDS011;730;48.870;12.542;2023-07-13T12:16:07;2.60;;;1.53;;
1475;SDS011;730;48.870;12.542;2023-07-13T12:18:39;1.73;;;1.23;;
1475;SDS011;730;48.870;12.542;2023-07-13T12:21:10;1.33;;;1.10;;
1475;SDS011;730;48.870;12.542;2023-07-13T12:23:39;3.77;;;1.40;;
1475;SDS011;730;48.870;12.542;2023-07-13T12:26:09;2.03;;;1.10;;
1475;SDS011;730;48.870;12.542;2023-07-13T12:28:39;1.80;;;1.13;;
1475;SDS011;730;48.870;12.542;2023-07-13T12:31:40;5.07;;;1.40;;
1475;SDS011;730;48.870;12.542;2023-07-13T12:36:35;4.83;;;1.40;;
1475;SDS011;730;48.870;12.542;2023-07-13T12:39:04;2.90;;;1.30;;
1475;SDS011;730;48.870;12.542;2023-07-13T12:44:42;2.87;;;1.23;;
1475;SDS011;730;48.870;12.542;2023-07-13T12:47:10;2.40;;;1.63;;
1475;SDS011;730;48.870;12.542;2023-07-13T12:49:43;1.40;;;1.20;;
1475;SDS011;730;48.870;12.542;2023-07-13T12:52:30;3.63;;;2.40;;
1475;SDS011;730;48.870;12.542;2023-07-13T12:57:30;5.20;;;1.20;;
1475;SDS011;730;48.870;12.542;2023-07-13T12:59:56;2.47;;;1.30;;
1475;SDS011;730;48.870;12.542;2023-07-13T13:04:57;1.40;;;1.03;;
1475;SDS011;730;48.870;12.542;2023-07-13T13:07:24;2.27;;;1.27;;
1475;SDS011;730;48.870;12.542;2023-07-13T13:09:50;2.87;;;1.40;;
1475;SDS011;730;48.870;12.542;2023-07-13T13:12:19;1.87;;;1.20;;
1475;SDS011;730;48.870;12.542;2023-07-13T13:14:45;5.00;;;1.67;;
1475;SDS011;730;48.870;12.542;2023-07-13T13:17:21;2.23;;;1.47;;
1475;SDS011;730;48.870;12.542;2023-07-13T13:19:50;3.00;;;1.23;;
1475;SDS011;730;48.870;12.542;2023-07-13T13:22:19;1.87;;;1.40;;
1475;SDS011;730;48.870;12.542;2023-07-13T13:24:46;2.23;;;1.30;;
1475;SDS011;730;48.870;12.542;2023-07-13T13:27:16;1.50;;;1.20;;
1475;SDS011;730;48.870;12.542;2023-07-13T13:29:45;2.87;;;1.30;;
1475;SDS011;730;48.870;12.542;2023-07-13T13:32:12;3.30;;;1.47;;
1475;SDS011;730;48.870;12.542;2023-07-13T13:34:40;2.50;;;1.30;;
1475;SDS011;730;48.870;12.542;2023-07-13T13:37:20;1.57;;;1.10;;
1475;SDS011;730;48.870;12.542;2023-07-13T13:39:47;1.40;;;1.00;;
1475;SDS011;730;48.870;12.542;2023-07-13T13:42:14;2.83;;;2.40;;
1475;SDS011;730;48.870;12.542;2023-07-13T13:44:41;2.00;;;1.40;;
1475;SDS011;730;48.870;12.542;2023-07-13T13:47:10;1.93;;;1.30;;
1475;SDS011;730;48.870;12.542;2023-07-13T13:49:46;2.30;;;1.63;;
1475;SDS011;730;48.870;12.542;2023-07-13T13:52:12;2.80;;;1.03;;
1475;SDS011;730;48.870;12.542;2023-07-13T13:54:39;2.27;;;1.23;;
1475;SDS011;730;48.870;12.542;2023-07-13T13:57:05;3.20;;;1.30;;
1475;SDS011;730;48.870;12.542;2023-07-13T13:59:35;2.33;;;1.30;;
1475;SDS011;730;48.870;12.542;2023-07-13T14:02:11;3.43;;;1.30;;
1475;SDS011;730;48.870;12.542;2023-07-13T14:04:55;3.37;;;1.80;;
1475;SDS011;730;48.870;12.542;2023-07-13T14:07:25;1.60;;;1.30;;
1475;SDS011;730;48.870;12.542;2023-07-13T14:09:55;1.67;;;1.37;;
1475;SDS011;730;48.870;12.542;2023-07-13T14:12:23;2.70;;;1.20;;
1475;SDS011;730;48.870;12.542;2023-07-13T14:14:54;2.00;;;1.47;;
1475;SDS011;730;48.870;12.542;2023-07-13T14:17:23;2.33;;;0.90;;
1475;SDS011;730;48.870;12.542;2023-07-13T14:19:52;3.83;;;1.30;;
1475;SDS011;730;48.870;12.542;2023-07-13T14:25:22;2.50;;;1.50;;
1475;SDS011;730;48.870;12.542;2023-07-13T14:27:49;2.70;;;1.70;;
1475;SDS011;730;48.870;12.542;2023-07-13T14:30:19;2.53;;;1.83;;
1475;SDS011;730;48.870;12.542;2023-07-13T14:32:50;2.40;;;1.13;;
1475;SDS011;730;48.870;12.542;2023-07-13T14:35:17;3.23;;;1.60;;
1475;SDS011;730;48.870;12.542;2023-07-13T14:37:47;3.77;;;1.57;;
1475;SDS011;730;48.870;12.542;2023-07-13T14:42:40;2.90;;;1.27;;
1475;SDS011;730;48.870;12.542;2023-07-13T14:45:12;1.83;;;1.43;;
1475;SDS011;730;48.870;12.542;2023-07-13T14:47:45;3.30;;;1.20;;
1475;SDS011;730;48.870;12.542;2023-07-13T14:50:15;1.70;;;1.40;;
1475;SDS011;730;48.870;12.542;2023-07-13T14:52:44;1.80;;;1.50;;
1475;SDS011;730;48.870;12.542;2023-07-13T14:55:11;1.73;;;1.20;;
1475;SDS011;730;48.870;12.542;2023-07-13T14:57:38;2.80;;;1.50;;
1475;SDS011;730;48.870;12.542;2023-07-13T15:00:07;3.93;;;1.20;;
1475;SDS011;730;48.870;12.542;2023-07-13T15:02:42;6.83;;;2.27;;
1475;SDS011;730;48.870;12.542;2023-07-13T15:05:19;3.73;;;2.10;;
1475;SDS011;730;48.870;12.542;2023-07-13T15:07:48;4.00;;;1.40;;
1475;SDS011;730;48.870;12.542;2023-07-13T15:10:18;3.07;;;1.40;;
1475;SDS011;730;48.870;12.542;2023-07-13T15:12:46;2.50;;;1.53;;
1475;SDS011;730;48.870;12.542;2023-07-13T15:15:12;3.00;;;1.40;;
1475;SDS011;730;48.870;12.542;2023-07-13T15:17:40;2.10;;;1.37;;
1475;SDS011;730;48.870;12.542;2023-07-13T15:20:22;4.60;;;1.50;;
1475;SDS011;730;48.870;12.542;2023-07-13T15:23:08;2.90;;;1.30;;
1475;SDS011;730;48.870;12.542;2023-07-13T15:25:35;2.10;;;1.13;;
1475;SDS011;730;48.870;12.542;2023-07-13T15:28:01;1.93;;;1.40;;
1475;SDS011;730;48.870;12.542;2023-07-13T15:30:31;2.17;;;1.10;;
1475;SDS011;730;48.870;12.542;2023-07-13T15:33:21;1.80;;;1.30;;
1475;SDS011;730;48.870;12.542;2023-07-13T15:35:50;2.10;;;1.10;;
1475;SDS011;730;48.870;12.542;2023-07-13T15:38:23;1.50;;;1.20;;
1475;SDS011;730;48.870;12.542;2023-07-13T15:40:51;2.20;;;2.00;;
1475;SDS011;730;48.870;12.542;2023-07-13T15:43:18;6.30;;;5.70;;
1475;SDS011;730;48.870;12.542;2023-07-13T15:45:44;1.63;;;1.30;;
1475;SDS011;730;48.870;12.542;2023-07-13T15:48:19;1.40;;;1.30;;
1475;SDS011;730;48.870;12.542;2023-07-13T15:50:48;2.47;;;1.10;;
1475;SDS011;730;48.870;12.542;2023-07-13T15:53:18;1.30;;;1.20;;
1475;SDS011;730;48.870;12.542;2023-07-13T15:55:50;2.87;;;1.60;;
1475;SDS011;730;48.870;12.542;2023-07-13T15:58:17;3.30;;;1.33;;
1475;SDS011;730;48.870;12.542;2023-07-13T16:00:44;1.80;;;1.20;;
1475;SDS011;730;48.870;12.542;2023-07-13T16:03:10;1.80;;;1.23;;
1475;SDS011;730;48.870;12.542;2023-07-13T16:05:37;2.00;;;1.00;;
1475;SDS011;730;48.870;12.542;2023-07-13T16:08:04;2.27;;;1.23;;
1475;SDS011;730;48.870;12.542;2023-07-13T16:13:00;2.77;;;1.43;;
1475;SDS011;730;48.870;12.542;2023-07-13T16:15:27;2.20;;;1.20;;
1475;SDS011;730;48.870;12.542;2023-07-13T16:17:53;1.80;;;1.13;;